createdAt,value
2022-12-12T00:00:19.715Z,100950.28
2022-12-12T00:02:52.698Z,100952.19
2022-12-12T00:05:26.545Z,100949.31
2022-12-12T00:07:59.440Z,100954.13
2022-12-12T00:10:34.008Z,100954.72
2022-12-12T00:13:08.471Z,100949.31
2022-12-12T00:15:41.524Z,100952.19
2022-12-12T00:18:14.442Z,100949.16
2022-12-12T00:20:52.651Z,100951.69
2022-12-12T00:23:28.309Z,100949.00
2022-12-12T00:26:06.571Z,100948.22
2022-12-12T00:28:41.690Z,100950.59
2022-12-12T00:31:15.857Z,100951.09
2022-12-12T00:33:54.742Z,100956.19
2022-12-12T00:36:29.806Z,100959.84
2022-12-12T00:39:06.810Z,100961.44
2022-12-12T00:41:41.266Z,100959.84
2022-12-12T00:44:14.119Z,100958.56
2022-12-12T00:46:47.232Z,100960.31
2022-12-12T00:49:20.231Z,100956.81
2022-12-12T00:51:53.038Z,100960.16
2022-12-12T00:54:25.996Z,100959.69
2022-12-12T00:57:00.710Z,100961.63
2022-12-12T00:59:33.505Z,100962.09
2022-12-12T01:02:06.299Z,100963.22
2022-12-12T01:04:39.138Z,100964.16
2022-12-12T01:07:12.384Z,100964.16
2022-12-12T01:09:45.366Z,100965.91
2022-12-12T01:12:19.463Z,100966.06
2022-12-12T01:14:52.306Z,100965.13
2022-12-12T01:17:25.380Z,100960.00
2022-12-12T01:19:58.135Z,100966.38
2022-12-12T01:22:31.395Z,100962.88
2022-12-12T01:25:04.650Z,100964.94
2022-12-12T01:27:40.242Z,100967.03
2022-12-12T01:30:17.257Z,100972.13
2022-12-12T01:32:50.770Z,100976.28
2022-12-12T01:35:24.609Z,100975.00
2022-12-12T01:37:57.855Z,100974.19
2022-12-12T01:40:34.398Z,100987.28
2022-12-12T01:43:12.694Z,100987.75
2022-12-12T01:46:41.421Z,100993.50
2022-12-12T01:49:22.454Z,100994.31
2022-12-12T01:52:04.192Z,100990.63
2022-12-12T01:54:42.373Z,100995.56
2022-12-12T01:57:21.055Z,100996.50
2022-12-12T01:59:58.796Z,101004.03
2022-12-12T02:02:32.736Z,101000.84
2022-12-12T02:05:13.111Z,101007.06
2022-12-12T02:07:46.593Z,101011.97
2022-12-12T02:10:20.496Z,101017.09
2022-12-12T02:12:58.157Z,101015.47
2022-12-12T02:15:40.664Z,101006.22
2022-12-12T02:18:23.562Z,101009.91
2022-12-12T02:21:12.401Z,101019.78
2022-12-12T02:24:16.294Z,101017.38
2022-12-12T02:27:19.825Z,101018.84
2022-12-12T02:30:14.133Z,101011.31
2022-12-12T02:32:59.812Z,101017.25
2022-12-12T02:35:42.694Z,101013.06
2022-12-12T02:38:25.791Z,101012.28
2022-12-12T02:41:10.280Z,101017.19
2022-12-12T02:43:50.025Z,101021.00
2022-12-12T02:46:29.328Z,101011.16
2022-12-12T02:49:10.879Z,101011.78
2022-12-12T02:51:44.299Z,101017.97
2022-12-12T02:54:20.907Z,101013.84
2022-12-12T02:57:00.486Z,101017.03
2022-12-12T02:59:38.268Z,101017.34
2022-12-12T03:03:16.629Z,101022.28
2022-12-12T03:06:22.248Z,101025.47
2022-12-12T03:09:06.257Z,101023.09
2022-12-12T03:11:52.221Z,101024.38
2022-12-12T03:14:28.047Z,101023.09
2022-12-12T03:17:07.405Z,101025.16
2022-12-12T03:19:47.978Z,101032.00
2022-12-12T03:22:27.426Z,101031.50
2022-12-12T03:25:08.653Z,101034.53
2022-12-12T03:27:51.948Z,101025.47
2022-12-12T03:30:25.271Z,101025.63
2022-12-12T03:33:07.949Z,101021.31
2022-12-12T03:35:47.901Z,101023.84
2022-12-12T03:38:25.839Z,101024.03
2022-12-12T03:41:01.852Z,101021.94
2022-12-12T03:43:38.953Z,101024.16
2022-12-12T03:46:18.431Z,101019.22
2022-12-12T03:49:05.442Z,101013.50
2022-12-12T03:51:43.508Z,101019.22
2022-12-12T03:54:23.151Z,101021.94
2022-12-12T03:57:01.757Z,101020.34
2022-12-12T03:59:45.105Z,101032.75
2022-12-12T04:02:20.936Z,101026.38
2022-12-12T04:05:01.693Z,101011.91
2022-12-12T04:07:38.734Z,101015.91
2022-12-12T04:10:32.526Z,101012.72
2022-12-12T04:13:13.500Z,101020.97
2022-12-12T04:15:55.218Z,101022.09
2022-12-12T04:18:37.459Z,101024.16
2022-12-12T04:21:53.390Z,101023.81
2022-12-12T04:24:36.450Z,101024.47
2022-12-12T04:27:18.829Z,101022.56
2022-12-12T04:29:56.850Z,101020.19
2022-12-12T04:32:35.614Z,101021.59
2022-12-12T04:35:13.637Z,101023.38
2022-12-12T04:37:50.929Z,101035.78
2022-12-12T04:40:27.006Z,101034.19
2022-12-12T04:43:05.620Z,101029.72
2022-12-12T04:45:45.365Z,101037.22
2022-12-12T04:48:21.547Z,101038.94
2022-12-12T04:50:55.132Z,101042.16
2022-12-12T04:53:33.870Z,101043.25
2022-12-12T04:56:10.510Z,101033.41
2022-12-12T04:58:45.066Z,101033.25
2022-12-12T05:01:26.806Z,101029.88
2022-12-12T05:04:03.113Z,101032.41
2022-12-12T05:06:44.061Z,101036.69
2022-12-12T05:09:19.023Z,101038.75
2022-12-12T05:11:52.004Z,101039.66
2022-12-12T05:14:27.874Z,101031.22
2022-12-12T05:17:06.421Z,101036.81
2022-12-12T05:19:39.327Z,101041.88
2022-12-12T05:22:12.144Z,101043.47
2022-12-12T05:24:45.004Z,101053.31
2022-12-12T05:27:17.967Z,101052.72
2022-12-12T05:29:51.892Z,101052.88
2022-12-12T05:32:24.610Z,101052.06
2022-12-12T05:34:57.427Z,101050.44
2022-12-12T05:37:30.237Z,101044.34
2022-12-12T05:40:03.510Z,101056.09
2022-12-12T05:42:36.449Z,101059.59
2022-12-12T05:45:12.511Z,101062.81
2022-12-12T05:47:45.661Z,101063.75
2022-12-12T05:50:18.364Z,101066.94
2022-12-12T05:52:51.404Z,101068.03
2022-12-12T05:55:23.949Z,101065.66
2022-12-12T05:57:56.913Z,101068.84
2022-12-12T06:00:31.446Z,101067.69
2022-12-12T06:03:04.337Z,101069.09
2022-12-12T06:05:36.904Z,101073.53
2022-12-12T06:08:09.770Z,101070.81
2022-12-12T06:10:43.084Z,101070.97
2022-12-12T06:13:15.892Z,101078.56
2022-12-12T06:15:50.378Z,101078.56
2022-12-12T06:18:23.503Z,101079.19
2022-12-12T06:21:03.368Z,101078.88
2022-12-12T06:23:37.470Z,101071.19
2022-12-12T06:26:12.396Z,101093.34
2022-12-12T06:28:47.156Z,101085.81
2022-12-12T06:31:21.479Z,101086.94
2022-12-12T06:33:54.486Z,101092.03
2022-12-12T06:36:27.255Z,101093.94
2022-12-12T06:39:01.870Z,101098.66
2022-12-12T06:41:35.327Z,101097.38
2022-12-12T06:44:09.052Z,101099.78
2022-12-12T06:46:43.210Z,101103.69
2022-12-12T06:49:16.008Z,101101.94
2022-12-12T06:51:48.866Z,101100.81
2022-12-12T06:54:21.719Z,101100.03
2022-12-12T06:56:54.638Z,101100.50
2022-12-12T06:59:29.556Z,101104.13
2022-12-12T07:02:03.847Z,101106.34
2022-12-12T07:04:36.771Z,101108.44
2022-12-12T07:07:09.389Z,101110.16
2022-12-12T07:09:42.181Z,101107.53
2022-12-12T07:12:14.977Z,101106.75
2022-12-12T07:14:47.823Z,101111.06
2022-12-12T07:17:22.749Z,101111.97
2022-12-12T07:19:55.443Z,101111.97
2022-12-12T07:22:28.417Z,101123.38
2022-12-12T07:25:00.990Z,101120.41
2022-12-12T07:27:33.707Z,101119.22
2022-12-12T07:30:07.370Z,101119.41
2022-12-12T07:32:41.770Z,101118.78
2022-12-12T07:35:15.077Z,101122.97
2022-12-12T07:37:48.550Z,101127.19
2022-12-12T07:40:21.442Z,101123.78
2022-12-12T07:42:54.459Z,101126.41
2022-12-12T07:45:28.161Z,101128.84
2022-12-12T07:48:02.337Z,101134.84
2022-12-12T07:50:35.234Z,101134.44
2022-12-12T07:53:08.155Z,101136.94
2022-12-12T07:55:41.847Z,101138.66
2022-12-12T07:58:15.994Z,101144.53
2022-12-12T08:00:48.887Z,101143.75
2022-12-12T08:03:23.085Z,101153.66
2022-12-12T08:05:55.747Z,101149.06
2022-12-12T08:08:28.700Z,101150.34
2022-12-12T08:11:01.450Z,101162.88
2022-12-12T08:13:35.634Z,101160.44
2022-12-12T08:16:13.616Z,101152.84
2022-12-12T08:18:49.041Z,101160.66
2022-12-12T08:21:25.767Z,101159.25
2022-12-12T08:24:01.141Z,101164.06
2022-12-12T08:26:33.948Z,101157.34
2022-12-12T08:29:07.180Z,101161.63
2022-12-12T08:31:41.032Z,101165.03
2022-12-12T08:34:15.423Z,101167.88
2022-12-12T08:36:49.094Z,101166.56
2022-12-12T08:39:22.568Z,101171.66
2022-12-12T08:41:55.448Z,101172.66
2022-12-12T08:44:28.097Z,101171.56
2022-12-12T08:47:01.080Z,101180.16
2022-12-12T08:49:35.432Z,101177.06
2022-12-12T08:52:10.029Z,101177.06
2022-12-12T08:54:42.848Z,101182.47
2022-12-12T08:57:15.459Z,101179.09
2022-12-12T08:59:48.671Z,101176.88
2022-12-12T09:02:21.538Z,101179.88
2022-12-12T09:04:55.614Z,101175.69
2022-12-12T09:07:28.293Z,101175.06
2022-12-12T09:10:01.169Z,101179.66
2022-12-12T09:12:38.355Z,101179.34
2022-12-12T09:15:14.511Z,101172.81
2022-12-12T09:17:47.726Z,101173.94
2022-12-12T09:20:22.029Z,101177.25
2022-12-12T09:22:54.955Z,101186.97
2022-12-12T09:25:27.844Z,101179.03
2022-12-12T09:28:00.631Z,101185.25
2022-12-12T09:30:33.449Z,101184.03
2022-12-12T09:33:06.813Z,101182.91
2022-12-12T09:35:41.598Z,101187.75
2022-12-12T09:38:15.319Z,101182.34
2022-12-12T09:40:54.853Z,101186.91
2022-12-12T09:43:30.332Z,101183.50
2022-12-12T09:46:05.835Z,101184.63
2022-12-12T09:48:43.082Z,101188.63
2022-12-12T09:51:17.915Z,101188.63
2022-12-12T09:53:52.160Z,101187.00
2022-12-12T09:56:30.338Z,101189.91
2022-12-12T09:59:09.892Z,101188.63
2022-12-12T10:01:58.740Z,101183.69
2022-12-12T10:04:39.151Z,101185.59
2022-12-12T10:07:20.806Z,101183.59
2022-12-12T10:10:03.994Z,101186.59
2022-12-12T10:12:38.052Z,101183.59
2022-12-12T10:15:26.106Z,101183.09
2022-12-12T10:18:01.592Z,101185.38
2022-12-12T10:20:41.961Z,101186.34
2022-12-12T10:23:22.640Z,101183.78
2022-12-12T10:25:58.339Z,101183.47
2022-12-12T10:28:33.273Z,101176.16
2022-12-12T10:31:28.850Z,101178.38
2022-12-12T10:34:19.025Z,101172.97
2022-12-12T10:37:09.199Z,101164.72
2022-12-12T10:39:51.658Z,101166.13
2022-12-12T10:42:30.421Z,101161.09
2022-12-12T10:45:34.097Z,101164.59
2022-12-12T10:48:06.882Z,101169.31
2022-12-12T10:50:44.332Z,101159.50
2022-12-12T10:53:17.197Z,101161.47
2022-12-12T10:55:56.227Z,101158.88
2022-12-12T10:58:37.753Z,101157.81
2022-12-12T11:01:28.382Z,101171.06
2022-12-12T11:04:15.597Z,101161.84
2022-12-12T11:06:51.880Z,101163.75
2022-12-12T11:09:27.041Z,101164.59
2022-12-12T11:12:04.198Z,101166.22
2022-12-12T11:14:39.243Z,101166.03
2022-12-12T11:17:22.121Z,101159.03
2022-12-12T11:19:57.550Z,101158.56
2022-12-12T11:22:33.977Z,101153.78
2022-12-12T11:25:07.556Z,101159.50
2022-12-12T11:27:42.860Z,101156.19
2022-12-12T11:30:24.711Z,101157.41
2022-12-12T11:32:58.341Z,101152.19
2022-12-12T11:35:41.102Z,101150.91
2022-12-12T11:38:21.829Z,101145.34
2022-12-12T11:41:01.652Z,101153.22
2022-12-12T11:43:38.356Z,101155.38
2022-12-12T11:46:19.076Z,101153.53
2022-12-12T11:48:59.394Z,101154.94
2022-12-12T11:51:36.243Z,101149.72
2022-12-12T11:54:14.638Z,101142.53
2022-12-12T11:56:55.282Z,101139.81
2022-12-12T11:59:43.190Z,101135.25
2022-12-12T12:02:45.088Z,101133.28
2022-12-12T12:05:28.869Z,101139.38
2022-12-12T12:08:17.935Z,101135.38
2022-12-12T12:11:05.448Z,101129.75
2022-12-12T12:13:51.177Z,101127.41
2022-12-12T12:16:47.537Z,101124.69
2022-12-12T12:19:29.266Z,101130.09
2022-12-12T12:22:36.218Z,101121.97
2022-12-12T12:25:50.253Z,101128.66
2022-12-12T12:28:48.156Z,101123.09
2022-12-12T12:31:28.411Z,101123.25
2022-12-12T12:34:21.464Z,101120.06
2022-12-12T12:37:09.589Z,101119.44
2022-12-12T12:40:00.035Z,101121.03
2022-12-12T12:42:50.037Z,101123.25
2022-12-12T12:45:34.145Z,101121.03
2022-12-12T12:48:16.911Z,101121.97
2022-12-12T12:50:57.056Z,101123.22
2022-12-12T12:53:36.149Z,101113.34
2022-12-12T12:56:21.071Z,101123.38
2022-12-12T12:59:11.186Z,101118.47
2022-12-12T13:01:47.244Z,101121.47
2022-12-12T13:04:25.471Z,101127.41
2022-12-12T13:07:04.231Z,101130.41
2022-12-12T13:09:43.708Z,101127.19
2022-12-12T13:12:32.201Z,101122.47
2022-12-12T13:15:14.046Z,101117.25
2022-12-12T13:17:53.235Z,101118.03
2022-12-12T13:20:27.024Z,101111.63
2022-12-12T13:23:13.820Z,101115.75
2022-12-12T13:25:56.521Z,101110.41
2022-12-12T13:28:36.262Z,101111.91
2022-12-12T13:31:36.808Z,101105.59
2022-12-12T13:34:16.341Z,101107.22
2022-12-12T13:36:52.506Z,101107.44
2022-12-12T13:39:30.744Z,101096.31
2022-12-12T13:48:48.336Z,101108.09
2022-12-12T13:51:36.067Z,101114.09
2022-12-12T13:54:52.075Z,101107.59
2022-12-12T13:57:30.948Z,101111.09
2022-12-12T14:00:21.766Z,101103.28
2022-12-12T14:03:28.799Z,101100.88
2022-12-12T14:06:13.327Z,101116.94
2022-12-12T14:08:51.102Z,101106.13
2022-12-12T14:11:32.126Z,101117.75
2022-12-12T14:14:23.432Z,101123.47
2022-12-12T14:16:57.786Z,101125.56
2022-12-12T14:19:35.598Z,101120.13
2022-12-12T14:22:27.395Z,101119.34
2022-12-12T14:25:09.310Z,101112.44
2022-12-12T14:28:17.342Z,101120.19
2022-12-12T14:30:59.269Z,101120.69
2022-12-12T14:34:03.666Z,101115.16
2022-12-12T14:37:16.966Z,101120.78
2022-12-12T14:40:03.785Z,101119.16
2022-12-12T14:43:19.080Z,101129.16
2022-12-12T14:45:40.158Z,101129.97
2022-12-12T14:48:20.790Z,101133.00
2022-12-12T14:50:58.513Z,101140.44
2022-12-12T14:53:35.054Z,101146.47
2022-12-12T14:56:13.160Z,101144.25
2022-12-12T14:58:50.632Z,101141.53
2022-12-12T15:01:31.314Z,101145.97
2022-12-12T15:04:09.296Z,101145.34
2022-12-12T15:06:43.608Z,101138.81
2022-12-12T15:09:20.584Z,101137.84
2022-12-12T15:11:56.841Z,101143.75
2022-12-12T15:14:29.670Z,101149.09
2022-12-12T15:17:04.127Z,101150.88
2022-12-12T15:19:41.679Z,101150.88
2022-12-12T15:22:21.963Z,101142.09
2022-12-12T15:24:59.819Z,101155.50
2022-12-12T15:27:46.148Z,101145.91
2022-12-12T15:30:27.527Z,101164.34
2022-12-12T15:33:05.383Z,101152.72
2022-12-12T15:35:50.411Z,101161.94
2022-12-12T15:38:23.654Z,101161.63
2022-12-12T15:40:59.866Z,101163.38
2022-12-12T15:43:37.098Z,101160.97
2022-12-12T15:46:15.809Z,101164.88
2022-12-12T15:48:54.131Z,101165.38
2022-12-12T15:51:33.142Z,101154.34
2022-12-12T15:54:06.908Z,101149.78
2022-12-12T15:56:40.006Z,101155.59
2022-12-12T15:59:19.098Z,101156.41
2022-12-12T16:01:51.942Z,101161.50
2022-12-12T16:04:28.417Z,101153.78
2022-12-12T16:07:21.170Z,101159.19
2022-12-12T16:10:21.157Z,101160.09
2022-12-12T16:12:59.921Z,101167.03
2022-12-12T16:15:36.223Z,101165.66
2022-12-12T16:18:19.086Z,101166.53
2022-12-12T16:20:54.723Z,101171.16
2022-12-12T16:23:34.144Z,101162.72
2022-12-12T16:26:10.425Z,101164.25
2022-12-12T16:28:43.835Z,101162.34
2022-12-12T16:31:19.509Z,101164.63
2022-12-12T16:33:54.454Z,101159.06
2022-12-12T16:36:29.537Z,101151.84
2022-12-12T16:39:04.459Z,101160.25
2022-12-12T16:41:38.339Z,101160.25
2022-12-12T16:44:11.366Z,101158.66
2022-12-12T16:46:44.456Z,101157.66
2022-12-12T16:49:17.539Z,101149.53
2022-12-12T16:51:50.738Z,101162.06
2022-12-12T16:54:25.061Z,101156.66
2022-12-12T16:56:57.907Z,101155.66
2022-12-12T16:59:30.854Z,101157.88
2022-12-12T17:02:03.700Z,101164.88
2022-12-12T17:04:36.491Z,101153.84
2022-12-12T17:07:09.371Z,101159.25
2022-12-12T17:09:43.387Z,101163.88
2022-12-12T17:12:17.711Z,101165.28
2022-12-12T17:14:50.583Z,101165.47
2022-12-12T17:17:23.361Z,101164.25
2022-12-12T17:19:56.189Z,101161.47
2022-12-12T17:22:28.919Z,101158.06
2022-12-12T17:25:03.260Z,101171.69
2022-12-12T17:27:36.497Z,101169.00
2022-12-12T17:30:13.931Z,101164.38
2022-12-12T17:35:37.310Z,101167.25
2022-12-12T17:38:15.754Z,101165.47
2022-12-12T17:40:53.919Z,101163.88
2022-12-12T17:43:26.790Z,101167.66
2022-12-12T17:46:00.300Z,101164.97
2022-12-12T17:48:35.415Z,101162.88
2022-12-12T17:51:09.897Z,101170.47
2022-12-12T17:53:42.781Z,101172.06
2022-12-12T17:56:17.803Z,101164.56
2022-12-12T17:58:51.431Z,101168.47
2022-12-12T18:01:26.619Z,101166.88
2022-12-12T18:04:00.883Z,101167.88
2022-12-12T18:06:36.185Z,101166.88
2022-12-12T18:09:09.103Z,101165.78
2022-12-12T18:11:44.059Z,101169.56
2022-12-12T18:14:19.125Z,101164.75
2022-12-12T18:16:53.393Z,101175.84
2022-12-12T18:19:29.175Z,101169.06
2022-12-12T18:22:02.515Z,101171.25
2022-12-12T18:24:35.989Z,101178.88
2022-12-12T18:27:10.743Z,101173.53
2022-12-12T18:29:44.177Z,101172.44
2022-12-12T18:32:17.747Z,101173.47
2022-12-12T18:34:51.192Z,101180.94
2022-12-12T18:37:24.428Z,101175.75
2022-12-12T18:39:58.042Z,101180.06
2022-12-12T18:42:32.480Z,101180.34
2022-12-12T18:45:10.330Z,101184.66
2022-12-12T18:47:44.407Z,101183.31
2022-12-12T18:50:19.056Z,101176.31
2022-12-12T18:52:53.165Z,101179.63
2022-12-12T18:55:30.060Z,101169.13
2022-12-12T18:58:04.310Z,101172.22
2022-12-12T19:00:40.409Z,101168.72
2022-12-12T19:03:16.305Z,101168.34
2022-12-12T19:05:49.429Z,101173.44
2022-12-12T19:08:22.456Z,101166.63
2022-12-12T19:10:55.496Z,101171.84
2022-12-12T19:13:29.848Z,101171.63
2022-12-12T19:16:05.254Z,101166.13
2022-12-12T19:18:39.316Z,101174.31
2022-12-12T19:21:17.467Z,101171.41
2022-12-12T19:23:51.707Z,101170.00
2022-12-12T19:26:27.069Z,101170.63
2022-12-12T19:29:04.587Z,101169.81
2022-12-12T19:31:37.897Z,101174.41
2022-12-12T19:34:13.418Z,101175.78
2022-12-12T19:36:46.299Z,101170.00
2022-12-12T19:39:19.559Z,101174.41
2022-12-12T19:41:52.760Z,101175.13
2022-12-12T19:44:27.001Z,101166.09
2022-12-12T19:46:59.848Z,101172.91
2022-12-12T19:49:32.738Z,101173.19
2022-12-12T19:52:12.186Z,101175.78
2022-12-12T19:54:46.937Z,101184.19
2022-12-12T19:57:21.061Z,101171.81
2022-12-12T19:59:55.168Z,101173.47
2022-12-12T20:02:28.206Z,101169.69
2022-12-12T20:05:01.237Z,101173.47
2022-12-12T20:07:34.230Z,101176.78
2022-12-12T20:10:07.864Z,101173.41
2022-12-12T20:12:49.407Z,101171.00
2022-12-12T20:15:28.875Z,101180.06
2022-12-12T20:18:02.895Z,101169.94
2022-12-12T20:20:35.828Z,101174.81
2022-12-12T20:23:08.929Z,101183.53
2022-12-12T20:25:43.193Z,101183.53
2022-12-12T20:28:16.034Z,101186.78
2022-12-12T20:30:53.393Z,101179.50
2022-12-12T20:33:26.929Z,101184.31
2022-12-12T20:36:05.402Z,101182.63
2022-12-12T20:38:39.670Z,101183.28
2022-12-12T20:41:14.568Z,101179.72
2022-12-12T20:43:48.705Z,101178.69
2022-12-12T20:46:25.552Z,101190.09
2022-12-12T20:49:00.055Z,101184.69
2022-12-12T20:54:30.235Z,101188.38
2022-12-12T20:57:03.150Z,101186.78
2022-12-12T20:59:36.089Z,101187.09
2022-12-12T21:02:11.926Z,101183.59
2022-12-12T21:04:45.040Z,101182.88
2022-12-12T21:07:17.861Z,101180.09
2022-12-12T21:09:50.622Z,101181.06
2022-12-12T21:12:23.469Z,101185.72
2022-12-12T21:15:02.463Z,101178.44
2022-12-12T21:17:37.020Z,101185.50
2022-12-12T21:20:10.583Z,101186.97
2022-12-12T21:22:43.385Z,101186.41
2022-12-12T21:25:16.568Z,101184.19
2022-12-12T21:27:49.757Z,101192.00
2022-12-12T21:30:22.749Z,101190.88
2022-12-12T21:32:56.899Z,101187.75
2022-12-12T21:35:29.806Z,101185.88
2022-12-12T21:38:04.542Z,101192.88
2022-12-12T21:40:37.652Z,101187.69
2022-12-12T21:43:10.541Z,101193.38
2022-12-12T21:45:43.164Z,101183.41
2022-12-12T21:48:17.968Z,101188.56
2022-12-12T21:50:50.899Z,101182.16
2022-12-12T21:53:35.976Z,101193.75
2022-12-12T21:56:10.817Z,101185.78
2022-12-12T21:58:45.471Z,101183.97
2022-12-12T22:01:20.615Z,101182.69
2022-12-12T22:03:55.388Z,101187.03
2022-12-12T22:06:31.795Z,101189.06
2022-12-12T22:09:08.226Z,101186.38
2022-12-12T22:11:48.805Z,101188.56
2022-12-12T22:14:25.234Z,101184.53
2022-12-12T22:16:58.154Z,101182.34
2022-12-12T22:19:33.647Z,101193.63
2022-12-12T22:22:07.001Z,101193.72
2022-12-12T22:24:40.124Z,101189.94
2022-12-12T22:27:15.201Z,101192.03
2022-12-12T22:29:48.171Z,101194.16
2022-12-12T22:32:21.152Z,101191.97
2022-12-12T22:34:58.081Z,101186.66
2022-12-12T22:37:30.953Z,101188.78
2022-12-12T22:40:04.244Z,101190.38
2022-12-12T22:42:37.080Z,101198.81
2022-12-12T22:45:10.312Z,101197.97
2022-12-12T22:47:46.055Z,101195.09
2022-12-12T22:50:20.755Z,101191.66
2022-12-12T22:52:56.164Z,101192.69
2022-12-12T22:55:30.644Z,101201.28
2022-12-12T22:58:04.109Z,101189.19
2022-12-12T23:00:37.112Z,101192.47
2022-12-12T23:03:09.829Z,101185.47
2022-12-12T23:05:44.030Z,101180.59
2022-12-12T23:08:17.301Z,101185.09
2022-12-12T23:10:52.899Z,101185.69
2022-12-12T23:13:26.067Z,101182.94
2022-12-12T23:15:59.426Z,101183.06
2022-12-12T23:18:32.579Z,101176.16
2022-12-12T23:21:10.992Z,101172.38
2022-12-12T23:23:48.642Z,101176.66
2022-12-12T23:26:23.333Z,101172.88
2022-12-12T23:28:56.452Z,101170.91
2022-12-12T23:31:31.755Z,101165.94
2022-12-12T23:34:07.379Z,101172.41
2022-12-12T23:36:44.878Z,101171.38
2022-12-12T23:39:19.865Z,101164.38
2022-12-12T23:41:53.549Z,101165.72
2022-12-12T23:44:26.671Z,101167.47
2022-12-12T23:46:59.904Z,101176.06
2022-12-12T23:49:32.598Z,101169.22
2022-12-12T23:52:06.852Z,101165.28
2022-12-12T23:54:39.842Z,101170.69
2022-12-12T23:57:15.885Z,101166.56
2022-12-12T23:59:48.877Z,101164.03
